createdAt,value
2022-10-09T00:01:31.859Z,4.80
2022-10-09T00:04:01.275Z,2.75
2022-10-09T00:06:31.673Z,3.13
2022-10-09T00:09:02.130Z,1.92
2022-10-09T00:11:32.159Z,2.10
2022-10-09T00:14:02.439Z,1.48
2022-10-09T00:16:31.084Z,1.23
2022-10-09T00:19:00.194Z,1.00
2022-10-09T00:21:30.972Z,1.10
2022-10-09T00:24:02.429Z,1.00
2022-10-09T00:26:30.801Z,0.90
2022-10-09T00:28:59.335Z,0.90
2022-10-09T00:31:29.324Z,1.63
2022-10-09T00:33:57.738Z,2.03
2022-10-09T00:36:27.926Z,2.35
2022-10-09T00:38:56.762Z,5.72
2022-10-09T00:41:27.923Z,5.70
2022-10-09T00:43:58.590Z,6.53
2022-10-09T00:46:36.307Z,5.50
2022-10-09T00:49:14.606Z,5.70
2022-10-09T00:51:45.729Z,5.20
2022-10-09T00:54:17.841Z,5.13
2022-10-09T00:56:46.168Z,5.03
2022-10-09T00:59:15.916Z,4.45
2022-10-09T01:01:46.319Z,4.30
2022-10-09T01:04:14.845Z,3.35
2022-10-09T01:06:56.224Z,4.03
2022-10-09T01:09:29.934Z,3.85
2022-10-09T01:14:31.139Z,3.08
2022-10-09T01:17:07.615Z,2.95
2022-10-09T01:19:58.205Z,2.60
2022-10-09T01:22:43.570Z,3.30
2022-10-09T01:25:21.314Z,3.30
2022-10-09T01:27:51.661Z,3.42
2022-10-09T01:30:20.576Z,2.65
2022-10-09T01:32:53.243Z,2.92
2022-10-09T01:35:24.347Z,3.25
2022-10-09T01:37:54.826Z,2.67
2022-10-09T01:40:24.808Z,2.50
2022-10-09T01:42:54.907Z,2.50
2022-10-09T01:45:23.399Z,2.08
2022-10-09T01:47:51.802Z,1.85
2022-10-09T01:50:27.912Z,1.60
2022-10-09T01:53:01.050Z,1.92
2022-10-09T01:55:37.792Z,2.88
2022-10-09T01:58:16.761Z,1.98
2022-10-09T02:00:49.691Z,2.42
2022-10-09T02:03:18.835Z,2.17
2022-10-09T02:05:50.999Z,2.20
2022-10-09T02:08:22.349Z,2.40
2022-10-09T02:10:54.015Z,2.40
2022-10-09T02:13:25.057Z,2.85
2022-10-09T02:15:58.351Z,2.80
2022-10-09T02:18:33.587Z,2.90
2022-10-09T02:21:10.490Z,2.72
2022-10-09T02:23:41.430Z,2.67
2022-10-09T02:26:11.541Z,2.25
2022-10-09T02:28:45.877Z,2.72
2022-10-09T02:31:21.541Z,2.88
2022-10-09T02:33:56.924Z,2.30
2022-10-09T02:36:25.687Z,2.25
2022-10-09T02:38:55.449Z,1.83
2022-10-09T02:41:24.890Z,1.70
2022-10-09T02:43:55.186Z,2.13
2022-10-09T02:46:23.760Z,2.30
2022-10-09T02:48:52.624Z,2.00
2022-10-09T02:51:21.161Z,1.80
2022-10-09T02:53:49.819Z,1.83
2022-10-09T02:56:18.103Z,1.92
2022-10-09T02:58:46.877Z,1.85
2022-10-09T03:01:16.955Z,1.88
2022-10-09T03:03:45.584Z,1.52
2022-10-09T03:06:16.583Z,1.98
2022-10-09T03:08:47.114Z,1.40
2022-10-09T03:11:16.983Z,1.52
2022-10-09T03:13:45.627Z,1.45
2022-10-09T03:16:18.266Z,2.03
2022-10-09T03:18:47.546Z,2.10
2022-10-09T03:21:18.299Z,2.00
2022-10-09T03:23:46.696Z,1.80
2022-10-09T03:26:17.439Z,1.60
2022-10-09T03:28:48.655Z,1.85
2022-10-09T03:31:39.615Z,4.22
2022-10-09T03:34:08.430Z,4.00
2022-10-09T03:36:36.994Z,4.18
2022-10-09T03:39:06.050Z,4.93
2022-10-09T03:41:34.476Z,2.33
2022-10-09T03:44:02.836Z,2.45
2022-10-09T03:46:32.776Z,1.75
2022-10-09T03:49:01.252Z,2.05
2022-10-09T03:51:29.554Z,2.13
2022-10-09T03:53:58.573Z,1.60
2022-10-09T03:56:27.065Z,1.83
2022-10-09T03:58:55.439Z,1.67
2022-10-09T04:01:24.146Z,2.08
2022-10-09T04:03:54.304Z,2.00
2022-10-09T04:06:22.915Z,2.10
2022-10-09T04:08:51.306Z,2.08
2022-10-09T04:11:19.681Z,2.55
2022-10-09T04:13:48.110Z,1.65
2022-10-09T04:16:16.487Z,2.08
2022-10-09T04:18:46.159Z,2.35
2022-10-09T04:21:16.282Z,1.92
2022-10-09T04:23:44.751Z,1.55
2022-10-09T04:26:14.321Z,1.92
2022-10-09T04:28:42.691Z,2.10
2022-10-09T04:31:11.284Z,1.95
2022-10-09T04:33:39.740Z,2.15
2022-10-09T04:36:08.936Z,1.83
2022-10-09T04:38:39.080Z,1.65
2022-10-09T04:41:08.682Z,1.70
2022-10-09T04:43:37.071Z,2.03
2022-10-09T04:46:06.649Z,1.75
2022-10-09T04:48:39.449Z,1.70
2022-10-09T04:51:09.255Z,2.10
2022-10-09T04:53:40.144Z,1.88
2022-10-09T04:56:10.616Z,1.52
2022-10-09T04:58:40.787Z,1.70
2022-10-09T05:01:10.359Z,1.83
2022-10-09T05:03:39.010Z,1.88
2022-10-09T05:06:09.837Z,1.90
2022-10-09T05:08:40.827Z,1.80
2022-10-09T05:11:11.711Z,1.70
2022-10-09T05:13:41.971Z,2.53
2022-10-09T05:16:12.513Z,1.90
2022-10-09T05:18:43.630Z,1.75
2022-10-09T05:21:12.246Z,1.85
2022-10-09T05:23:42.467Z,2.00
2022-10-09T05:26:13.098Z,1.90
2022-10-09T05:28:41.551Z,2.10
2022-10-09T05:31:11.275Z,1.58
2022-10-09T05:33:40.208Z,1.50
2022-10-09T05:36:09.031Z,1.92
2022-10-09T05:38:37.424Z,2.00
2022-10-09T05:41:08.726Z,1.80
2022-10-09T05:43:38.565Z,1.85
2022-10-09T05:46:09.076Z,1.52
2022-10-09T05:48:38.777Z,1.60
2022-10-09T05:51:12.823Z,1.60
2022-10-09T05:53:41.937Z,2.00
2022-10-09T05:56:17.723Z,1.55
2022-10-09T05:58:50.589Z,1.58
2022-10-09T06:01:19.362Z,1.87
2022-10-09T06:03:51.141Z,1.45
2022-10-09T06:06:21.282Z,1.50
2022-10-09T06:08:50.270Z,1.42
2022-10-09T06:11:22.160Z,2.20
2022-10-09T06:13:51.431Z,2.20
2022-10-09T06:16:21.002Z,1.98
2022-10-09T06:18:49.850Z,1.63
2022-10-09T06:21:18.693Z,1.83
2022-10-09T06:23:51.115Z,1.58
2022-10-09T06:26:22.352Z,1.60
2022-10-09T06:28:51.006Z,1.58
2022-10-09T06:31:22.335Z,1.42
2022-10-09T06:33:53.555Z,1.63
2022-10-09T06:36:23.475Z,1.95
2022-10-09T06:38:52.621Z,1.67
2022-10-09T06:41:24.951Z,1.70
2022-10-09T06:43:55.483Z,3.60
2022-10-09T06:46:26.104Z,3.22
2022-10-09T06:48:54.671Z,3.05
2022-10-09T06:51:25.176Z,3.42
2022-10-09T06:53:55.199Z,2.45
2022-10-09T06:56:26.923Z,2.03
2022-10-09T06:58:56.030Z,2.10
2022-10-09T07:01:27.025Z,2.60
2022-10-09T07:03:57.746Z,2.08
2022-10-09T07:06:28.044Z,1.85
2022-10-09T07:08:58.662Z,1.80
2022-10-09T07:11:30.546Z,2.30
2022-10-09T07:14:00.924Z,2.10
2022-10-09T07:16:31.469Z,2.00
2022-10-09T07:19:01.424Z,4.85
2022-10-09T07:21:29.686Z,2.88
2022-10-09T07:24:00.825Z,4.80
2022-10-09T07:26:32.386Z,2.42
2022-10-09T07:29:01.228Z,2.30
2022-10-09T07:31:29.643Z,2.00
2022-10-09T07:33:58.265Z,2.30
2022-10-09T07:36:26.897Z,2.50
2022-10-09T07:38:56.804Z,2.42
2022-10-09T07:41:27.636Z,3.25
2022-10-09T07:43:58.645Z,3.42
2022-10-09T07:46:33.483Z,2.90
2022-10-09T07:49:02.311Z,3.13
2022-10-09T07:51:31.584Z,2.72
2022-10-09T07:54:02.500Z,3.03
2022-10-09T07:56:33.834Z,2.33
2022-10-09T07:59:05.756Z,2.67
2022-10-09T08:01:36.408Z,2.08
2022-10-09T08:04:06.374Z,2.05
2022-10-09T08:06:35.431Z,1.98
2022-10-09T08:09:05.157Z,2.08
2022-10-09T08:11:33.959Z,1.80
2022-10-09T08:14:03.803Z,1.77
2022-10-09T08:16:33.832Z,2.08
2022-10-09T08:19:03.195Z,1.65
2022-10-09T08:21:33.104Z,2.08
2022-10-09T08:24:02.529Z,1.85
2022-10-09T08:26:35.620Z,1.70
2022-10-09T08:29:08.885Z,1.65
2022-10-09T08:31:37.411Z,1.65
2022-10-09T08:34:07.215Z,1.77
2022-10-09T08:36:35.935Z,1.73
2022-10-09T08:39:04.301Z,1.40
2022-10-09T08:41:51.491Z,0.98
2022-10-09T08:44:25.587Z,5.80
2022-10-09T08:47:10.278Z,2.45
2022-10-09T08:49:49.711Z,1.70
2022-10-09T08:52:26.228Z,1.20
2022-10-09T08:54:57.558Z,1.40
2022-10-09T08:57:32.646Z,1.05
2022-10-09T09:00:03.119Z,1.35
2022-10-09T09:02:43.013Z,1.48
2022-10-09T09:05:24.683Z,1.42
2022-10-09T09:08:02.899Z,1.13
2022-10-09T09:10:42.280Z,1.23
2022-10-09T09:13:29.081Z,1.08
2022-10-09T09:16:09.539Z,1.30
2022-10-09T09:18:46.828Z,1.30
2022-10-09T09:21:30.505Z,1.23
2022-10-09T09:24:02.278Z,1.35
2022-10-09T09:26:30.807Z,1.48
2022-10-09T09:29:04.235Z,1.30
2022-10-09T09:31:37.828Z,1.63
2022-10-09T09:36:43.980Z,1.20
2022-10-09T09:42:09.556Z,1.17
2022-10-09T09:44:41.755Z,1.27
2022-10-09T09:47:17.010Z,1.02
2022-10-09T09:49:55.600Z,1.15
2022-10-09T09:52:26.323Z,1.13
2022-10-09T09:54:58.926Z,1.13
2022-10-09T09:57:37.183Z,1.10
2022-10-09T10:00:19.070Z,1.08
2022-10-09T10:02:49.149Z,1.48
2022-10-09T10:05:23.386Z,0.90
2022-10-09T10:07:52.778Z,1.05
2022-10-09T10:10:25.511Z,1.17
2022-10-09T10:13:00.760Z,1.30
2022-10-09T10:15:30.898Z,1.10
2022-10-09T10:18:04.129Z,1.45
2022-10-09T10:20:34.912Z,1.13
2022-10-09T10:23:03.246Z,1.20
2022-10-09T10:25:35.360Z,1.52
2022-10-09T10:28:09.910Z,1.05
2022-10-09T10:30:40.163Z,5.68
2022-10-09T10:33:19.891Z,3.45
2022-10-09T10:35:53.299Z,1.10
2022-10-09T10:38:27.349Z,0.95
2022-10-09T10:41:05.236Z,4.22
2022-10-09T10:43:43.188Z,1.30
2022-10-09T10:46:25.157Z,0.82
2022-10-09T10:48:55.235Z,1.10
2022-10-09T10:52:04.475Z,1.10
2022-10-09T10:54:39.472Z,13.05
2022-10-09T10:57:16.954Z,1.25
2022-10-09T10:59:58.364Z,1.40
2022-10-09T11:02:55.407Z,1.20
2022-10-09T11:05:42.902Z,1.10
2022-10-09T11:08:32.934Z,1.10
2022-10-09T11:11:07.763Z,1.15
2022-10-09T11:13:46.812Z,1.17
2022-10-09T11:16:28.057Z,1.27
2022-10-09T11:19:15.478Z,1.05
2022-10-09T11:21:59.400Z,0.85
2022-10-09T11:24:47.515Z,1.67
2022-10-09T11:27:20.819Z,0.60
2022-10-09T11:30:06.250Z,1.10
2022-10-09T11:32:38.854Z,1.00
2022-10-09T11:35:14.680Z,1.20
2022-10-09T11:37:49.795Z,1.10
2022-10-09T11:40:21.838Z,10.65
2022-10-09T11:43:00.089Z,2.78
2022-10-09T11:45:37.210Z,1.92
2022-10-09T11:48:11.724Z,1.02
2022-10-09T11:50:50.434Z,1.00
2022-10-09T11:53:24.411Z,1.60
2022-10-09T11:56:03.567Z,1.58
2022-10-09T11:58:32.539Z,0.93
2022-10-09T12:01:14.890Z,1.10
2022-10-09T12:03:44.724Z,1.30
2022-10-09T12:06:15.083Z,2.50
2022-10-09T12:08:56.023Z,1.50
2022-10-09T12:11:25.194Z,2.13
2022-10-09T12:13:55.836Z,1.23
2022-10-09T12:16:42.744Z,0.90
2022-10-09T12:19:20.519Z,0.80
2022-10-09T12:22:02.252Z,1.08
2022-10-09T12:24:38.555Z,3.20
2022-10-09T12:27:07.898Z,4.35
2022-10-09T12:29:44.713Z,2.60
2022-10-09T12:32:19.204Z,3.00
2022-10-09T12:34:52.826Z,2.00
2022-10-09T12:39:52.015Z,1.00
2022-10-09T12:42:24.001Z,0.70
2022-10-09T12:44:55.663Z,1.15
2022-10-09T12:47:26.990Z,0.60
2022-10-09T12:50:05.003Z,1.02
2022-10-09T12:52:34.203Z,0.80
2022-10-09T12:55:04.352Z,0.90
2022-10-09T12:57:32.929Z,1.17
2022-10-09T13:00:01.652Z,1.30
2022-10-09T13:02:30.428Z,1.65
2022-10-09T13:05:03.158Z,1.20
2022-10-09T13:07:33.475Z,1.20
2022-10-09T13:10:06.618Z,1.10
2022-10-09T13:12:36.522Z,1.35
2022-10-09T13:15:08.629Z,1.50
2022-10-09T13:17:39.555Z,1.15
2022-10-09T13:20:28.060Z,0.80
2022-10-09T13:22:57.488Z,0.95
2022-10-09T13:25:30.227Z,1.13
2022-10-09T13:27:59.136Z,1.50
2022-10-09T13:30:28.543Z,3.75
2022-10-09T13:32:57.238Z,3.55
2022-10-09T13:35:25.978Z,2.17
2022-10-09T13:37:54.324Z,0.90
2022-10-09T13:40:22.998Z,0.90
2022-10-09T13:42:55.640Z,1.23
2022-10-09T13:45:24.211Z,1.00
2022-10-09T13:47:52.786Z,1.25
2022-10-09T13:50:21.521Z,0.90
2022-10-09T13:52:50.026Z,0.70
2022-10-09T13:55:18.952Z,0.70
2022-10-09T13:57:50.073Z,0.93
2022-10-09T14:00:21.914Z,0.70
2022-10-09T14:02:51.575Z,0.70
2022-10-09T14:05:20.371Z,0.73
2022-10-09T14:07:49.554Z,0.98
2022-10-09T14:10:23.030Z,0.70
2022-10-09T14:12:52.642Z,0.75
2022-10-09T14:15:22.622Z,0.70
2022-10-09T14:17:51.537Z,0.98
2022-10-09T14:20:20.457Z,0.90
2022-10-09T14:22:49.019Z,0.70
2022-10-09T14:25:18.151Z,0.95
2022-10-09T14:27:46.560Z,0.60
2022-10-09T14:30:15.701Z,1.67
2022-10-09T14:32:46.419Z,1.40
2022-10-09T14:35:18.248Z,1.20
2022-10-09T14:37:49.842Z,2.45
2022-10-09T14:40:18.827Z,0.93
2022-10-09T14:42:47.474Z,0.80
2022-10-09T14:45:16.194Z,0.70
2022-10-09T14:47:45.928Z,0.68
2022-10-09T14:50:14.938Z,0.70
2022-10-09T14:52:43.349Z,0.70
2022-10-09T14:55:12.003Z,1.10
2022-10-09T14:57:40.349Z,0.80
2022-10-09T15:00:10.022Z,0.82
2022-10-09T15:02:38.733Z,0.70
2022-10-09T15:05:09.431Z,0.60
2022-10-09T15:07:37.743Z,0.80
2022-10-09T15:10:06.845Z,0.88
2022-10-09T15:12:37.080Z,0.80
2022-10-09T15:15:06.047Z,1.00
2022-10-09T15:17:34.440Z,1.00
2022-10-09T15:20:03.005Z,0.68
2022-10-09T15:22:32.771Z,1.10
2022-10-09T15:25:01.175Z,3.15
2022-10-09T15:27:29.517Z,1.80
2022-10-09T15:29:58.027Z,1.75
2022-10-09T15:32:26.544Z,1.63
2022-10-09T15:34:54.954Z,0.95
2022-10-09T15:37:23.420Z,0.80
2022-10-09T15:39:53.665Z,0.73
2022-10-09T15:42:23.475Z,1.00
2022-10-09T15:44:51.999Z,1.00
2022-10-09T15:47:39.280Z,0.80
2022-10-09T15:50:10.298Z,0.82
2022-10-09T15:52:38.788Z,0.70
2022-10-09T15:55:09.469Z,1.65
2022-10-09T15:57:37.987Z,1.40
2022-10-09T16:00:08.006Z,1.17
2022-10-09T16:02:37.155Z,1.50
2022-10-09T16:05:06.303Z,1.70
2022-10-09T16:07:34.675Z,2.30
2022-10-09T16:10:03.122Z,1.70
2022-10-09T16:12:33.231Z,1.85
2022-10-09T16:15:01.636Z,2.00
2022-10-09T16:17:29.951Z,2.95
2022-10-09T16:19:58.526Z,2.15
2022-10-09T16:22:26.857Z,2.38
2022-10-09T16:24:55.229Z,1.90
2022-10-09T16:27:23.578Z,2.28
2022-10-09T16:29:53.540Z,2.58
2022-10-09T16:32:22.220Z,2.88
2022-10-09T16:34:51.174Z,4.55
2022-10-09T16:37:19.521Z,7.85
2022-10-09T16:39:49.488Z,8.90
2022-10-09T16:42:18.568Z,6.93
2022-10-09T16:44:46.975Z,5.53
2022-10-09T16:47:17.266Z,4.90
2022-10-09T16:49:45.743Z,8.43
2022-10-09T16:52:14.107Z,4.88
2022-10-09T16:54:43.871Z,5.13
2022-10-09T16:57:12.519Z,4.80
2022-10-09T16:59:41.776Z,3.03
2022-10-09T17:02:12.521Z,3.42
2022-10-09T17:04:43.294Z,3.47
2022-10-09T17:07:12.497Z,3.47
2022-10-09T17:09:41.894Z,3.17
2022-10-09T17:12:13.256Z,3.22
2022-10-09T17:14:42.358Z,2.83
2022-10-09T17:17:12.175Z,2.70
2022-10-09T17:19:42.330Z,3.30
2022-10-09T17:22:11.461Z,4.03
2022-10-09T17:24:40.502Z,3.63
2022-10-09T17:27:09.966Z,5.05
2022-10-09T17:29:38.694Z,5.00
2022-10-09T17:32:09.554Z,4.05
2022-10-09T17:34:43.075Z,4.43
2022-10-09T17:37:13.256Z,4.22
2022-10-09T17:39:48.497Z,4.50
2022-10-09T17:42:18.518Z,4.25
2022-10-09T17:44:47.203Z,3.90
2022-10-09T17:47:15.578Z,4.50
2022-10-09T17:49:44.242Z,4.47
2022-10-09T17:52:14.100Z,4.40
2022-10-09T17:54:42.863Z,4.20
2022-10-09T17:57:12.719Z,4.18
2022-10-09T17:59:41.241Z,4.32
2022-10-09T18:02:09.571Z,4.38
2022-10-09T18:04:38.168Z,5.40
2022-10-09T18:07:06.939Z,5.40
2022-10-09T18:09:36.780Z,6.05
2022-10-09T18:12:05.470Z,7.15
2022-10-09T18:14:35.491Z,7.18
2022-10-09T18:17:04.342Z,9.10
2022-10-09T18:19:32.762Z,7.97
2022-10-09T18:22:01.258Z,9.00
2022-10-09T18:24:29.943Z,10.02
2022-10-09T18:27:01.423Z,11.68
2022-10-09T18:29:29.865Z,12.02
2022-10-09T18:31:58.902Z,11.38
2022-10-09T18:34:27.490Z,10.55
2022-10-09T18:36:58.440Z,11.95
2022-10-09T18:39:26.877Z,10.13
2022-10-09T18:41:58.422Z,9.75
2022-10-09T18:44:28.374Z,8.75
2022-10-09T18:46:59.782Z,7.63
2022-10-09T18:49:33.346Z,7.20
2022-10-09T18:52:04.450Z,8.30
2022-10-09T18:54:33.473Z,5.95
2022-10-09T18:57:05.220Z,6.20
2022-10-09T18:59:39.267Z,6.55
2022-10-09T19:02:09.366Z,6.50
2022-10-09T19:04:38.164Z,7.20
2022-10-09T19:07:07.681Z,6.78
2022-10-09T19:09:37.895Z,7.50
2022-10-09T19:12:07.417Z,7.07
2022-10-09T19:14:39.404Z,7.15
2022-10-09T19:17:09.923Z,7.05
2022-10-09T19:19:39.967Z,7.70
2022-10-09T19:22:14.937Z,7.43
2022-10-09T19:24:45.781Z,8.15
2022-10-09T19:27:15.826Z,9.27
2022-10-09T19:29:47.132Z,17.13
2022-10-09T19:32:22.920Z,11.10
2022-10-09T19:34:53.334Z,11.32
2022-10-09T19:37:27.442Z,9.50
2022-10-09T19:39:59.644Z,5.72
2022-10-09T19:42:29.879Z,5.28
2022-10-09T19:45:01.507Z,4.70
2022-10-09T19:47:31.221Z,5.00
2022-10-09T19:50:01.249Z,4.20
2022-10-09T19:52:31.069Z,4.70
2022-10-09T19:55:00.992Z,4.05
2022-10-09T19:57:30.951Z,5.00
2022-10-09T20:00:02.521Z,3.88
2022-10-09T20:02:33.129Z,3.20
2022-10-09T20:05:03.039Z,3.22
2022-10-09T20:07:34.795Z,3.75
2022-10-09T20:10:05.327Z,3.25
2022-10-09T20:12:34.350Z,3.08
2022-10-09T20:15:06.074Z,4.45
2022-10-09T20:17:35.991Z,4.32
2022-10-09T20:20:06.101Z,3.90
2022-10-09T20:22:35.857Z,4.80
2022-10-09T20:25:05.883Z,4.13
2022-10-09T20:27:35.671Z,4.05
2022-10-09T20:30:08.171Z,4.32
2022-10-09T20:32:37.899Z,3.55
2022-10-09T20:35:08.470Z,4.25
2022-10-09T20:37:37.932Z,5.38
2022-10-09T20:40:08.809Z,4.72
2022-10-09T20:42:37.142Z,4.32
2022-10-09T20:45:08.161Z,4.68
2022-10-09T20:47:36.917Z,3.70
2022-10-09T20:50:05.657Z,3.33
2022-10-09T20:52:34.036Z,3.45
2022-10-09T20:55:03.029Z,3.80
2022-10-09T20:57:31.291Z,4.07
2022-10-09T20:59:59.683Z,4.78
2022-10-09T21:02:29.487Z,5.20
2022-10-09T21:04:57.854Z,7.18
2022-10-09T21:07:26.207Z,9.35
2022-10-09T21:09:54.559Z,9.48
2022-10-09T21:12:23.386Z,9.32
2022-10-09T21:14:51.745Z,13.15
2022-10-09T21:17:20.131Z,16.25
2022-10-09T21:19:51.089Z,16.17
2022-10-09T21:22:19.879Z,14.68
2022-10-09T21:24:48.387Z,14.50
2022-10-09T21:27:16.786Z,13.75
2022-10-09T21:29:45.315Z,8.13
2022-10-09T21:32:13.704Z,7.68
2022-10-09T21:34:42.031Z,6.95
2022-10-09T21:37:21.284Z,6.25
2022-10-09T21:39:50.477Z,7.88
2022-10-09T21:42:18.918Z,11.63
2022-10-09T21:44:47.380Z,6.43
2022-10-09T21:47:19.568Z,4.95
2022-10-09T21:49:48.183Z,5.85
2022-10-09T21:52:18.432Z,3.67
2022-10-09T21:54:46.815Z,4.75
2022-10-09T21:57:15.152Z,6.57
2022-10-09T21:59:43.972Z,9.90
2022-10-09T22:02:12.503Z,8.02
2022-10-09T22:04:40.809Z,16.35
2022-10-09T22:07:09.348Z,19.20
2022-10-09T22:09:39.799Z,19.58
2022-10-09T22:12:08.171Z,18.77
2022-10-09T22:14:36.664Z,15.52
2022-10-09T22:17:04.930Z,12.27
2022-10-09T22:19:33.511Z,10.75
2022-10-09T22:22:01.929Z,11.55
2022-10-09T22:24:31.071Z,10.88
2022-10-09T22:27:01.334Z,11.98
2022-10-09T22:29:30.014Z,10.88
2022-10-09T22:31:58.539Z,11.10
2022-10-09T22:34:27.009Z,9.50
2022-10-09T22:36:55.487Z,9.05
2022-10-09T22:39:24.133Z,8.23
2022-10-09T22:41:52.469Z,8.35
2022-10-09T22:44:22.626Z,6.82
2022-10-09T22:46:52.323Z,7.07
2022-10-09T22:49:20.767Z,6.15
2022-10-09T22:51:49.124Z,5.53
2022-10-09T22:54:19.511Z,5.05
2022-10-09T22:56:48.543Z,4.63
2022-10-09T22:59:18.525Z,4.30
2022-10-09T23:01:51.534Z,4.13
2022-10-09T23:04:21.888Z,3.60
2022-10-09T23:06:52.599Z,3.30
2022-10-09T23:09:22.619Z,3.35
2022-10-09T23:11:51.033Z,2.95
2022-10-09T23:14:19.695Z,2.40
2022-10-09T23:16:49.712Z,2.05
2022-10-09T23:19:18.816Z,2.25
2022-10-09T23:21:47.944Z,2.38
2022-10-09T23:24:18.006Z,1.92
2022-10-09T23:26:47.189Z,2.10
2022-10-09T23:29:17.727Z,1.98
2022-10-09T23:31:46.597Z,1.80
2022-10-09T23:34:16.407Z,1.73
2022-10-09T23:36:45.075Z,1.45
2022-10-09T23:39:14.251Z,1.60
2022-10-09T23:41:42.619Z,1.48
2022-10-09T23:44:11.511Z,1.63
2022-10-09T23:46:40.067Z,2.20
2022-10-09T23:49:08.476Z,2.10
2022-10-09T23:51:38.219Z,3.38
2022-10-09T23:54:07.357Z,2.60
2022-10-09T23:56:37.653Z,2.63
2022-10-09T23:59:07.507Z,2.30
